Řízení letového provozu České republiky  
Aktualizace dat:  21.10.2021 11:02:31 UTC English version
   METEO Zobrazení stránky:  21.10.2021 11:04:06 UTC  
vysvětlivky
METAR EDDB 211050Z 23042KT 9999 -SHRA BKN037 15/07 Q0990 TEMPO 23030G45KT 4500 +SHRA=
METAR EDDC 211050Z 25026G41KT 210V280 9999 -SHRA SCT036TCU BKN049 14/07 Q0997 NOSIG=
METAR EDDE 211050Z 26033G44KT 9999 SCT026 11/05 Q1001 NOSIG=
METAR EDDF 211050Z 23025G39KT 9999 FEW028 BKN039 14/05 Q1007 NOSIG=
METAR EDDM 211050Z 26029G42KT 9999 FEW040 15/05 Q1010 NOSIG=
METAR EDDN 211050Z 25022G34KT 9999 BKN033 13/06 Q1009 NOSIG=
METAR EDDP 211050Z 26044G58KT 9999 -RA BKN033 13/07 Q0998 NOSIG=
METAR EDQM NIL
METAR EPBY 211100Z 22016G28KT 9999 -TSRA FEW006 SCT039CB BKN045 13/10 Q0990 RESHRA=
METAR EPGD 211100Z 22021G31KT 190V250 9999 FEW025 14/09 Q0984=
METAR EPKK 211100Z 25013KT CAVOK 17/10 Q1003=
METAR EPKT 211100Z 21021KT CAVOK 15/09 Q1001=
METAR EPLL 211100Z 21011G24KT 160V250 9999 FEW020 15/10 Q0996=
METAR EPPO 211100Z 24022G38KT 200V260 CAVOK 18/05 Q0992=
METAR EPRZ 211100Z 21020KT CAVOK 15/07 Q1004=
METAR EPWA 211100Z 18012KT CAVOK 14/10 Q0996 NOSIG=
METAR EPWR 211100Z 25022G36KT CAVOK 19/04 Q0998=
METAR LHBP 211100Z 23024G34KT 9999 FEW049 SCT072 18/08 Q1009 NOSIG=
METAR LHSM 211045Z AUTO 22017KT 180V250 CAVOK 18/09 Q1010 NOSIG=
METAR LKBC 211100Z AUTO 24021G32KT 210V270 9999 BKN055 BKN110 15/04 Q1007=
METAR LKCV 211100Z 26029G39KT CAVOK 18/04 Q1003 NOSIG RMK BLU BLU=
METAR LKKB 211100Z 24034G60KT CAVOK 16/04 Q1002 NOSIG RMK BLU BLU=
METAR LKKU 211100Z 19007KT CAVOK 16/09 Q1006=
METAR LKKV 211100Z 25017G31KT 210V280 9999 -SHRA BKN020 10/05 Q1004 RMK REG QNH 0997=
METAR LKLN 211100Z AUTO 25022G42KT 220V300 9999 BKN047 BKN053 14/04 Q1006=
METAR LKMT 211100Z 20012KT 9999 FEW013 15/09 Q1003 NOSIG RMK REG QNH 0997=
METAR LKNA 211100Z 22012G27KT 170V260 CAVOK 15/08 Q1005 NOSIG RMK BLU BLU=
METAR LKPD 211100Z 25030G40KT CAVOK 18/05 Q1002 NOSIG RMK BLU BLU=
METAR LKPJ 211100Z AUTO 16010KT 9999 BKN093/// OVC110/// 13/09 Q1005=
METAR LKPR 211100Z 24040G56KT 9999 SCT048 15/05 Q1002 NOSIG RMK REG QNH 0997=
METAR LKTB 211100Z 19008KT 170V230 CAVOK 12/09 Q1006 NOSIG RMK REG QNH 0997=
METAR LKVO NIL
METAR LOWI 211050Z 22018G30KT 9999 -SHRA FEW040 SCT050 BKN065 14/06 Q1011 NOSIG=
METAR LOWL 211050Z 27017KT 9999 -SHRA FEW042 BKN055 14/08 Q1010 NOSIG=
METAR LOWS 211050Z 27017G33KT 230V320 9999 -RA FEW050 BKN060 13/05 Q1011 WS ALL RWY NOSIG=
METAR LOWW 211050Z 31006G27KT 240V360 9999 FEW050 18/10 Q1008 NOSIG=
METAR LZIB 211100Z 29009KT CAVOK 18/11 Q1007 BECMG 27015KT=
METAR LZKZ 211100Z 24009KT 9999 OVC039 12/07 Q1009 NOSIG=
METAR LZMC NIL
METAR LZPP 211030Z 17008KT 9999 FEW031 18/09 Q1007=
METAR LZSL NIL
METAR LZTT 211100Z 22019KT 9999 SCT026 13/07 Q1006 NOSIG=
METAR LZZI 211030Z 21005KT 160V260 9999 OVC030 14/08 Q1007=